Time;durP1;ratioP1;P1;durP2;ratioP2;P2;SDS_P1;SDS_P2;PMS_P1;PMS_P2;Temp;Humidity;BMP_temperature;BMP_pressure;BME280_temperature;BME280_humidity;BME280_pressure;Samples;Min_cycle;Max_cycle;Signal;HPM_P1;HPM_P2
2023/05/31 00:01:56;;;;;;;4.03;2.40;;;;;;;;;;5004190;28;20181;-71
2023/05/31 00:04:22;;;;;;;2.50;2.10;;;;;;;;;;5006861;28;20332;-71
2023/05/31 00:06:47;;;;;;;2.60;1.90;;;;;;;;;;5010015;28;20240;-71
2023/05/31 00:09:12;;;;;;;6.20;2.87;;;;;;;;;;5009948;28;20200;-71
2023/05/31 00:11:37;;;;;;;3.10;2.00;;;;;;;;;;5011069;28;20184;-71
2023/05/31 00:14:02;;;;;;;10.23;2.47;;;;;;;;;;5006973;28;20196;-71
2023/05/31 00:16:28;;;;;;;5.33;2.33;;;;;;;;;;5009564;28;20168;-71
2023/05/31 00:18:53;;;;;;;2.23;1.80;;;;;;;;;;5009013;28;20177;-71
2023/05/31 00:21:18;;;;;;;2.70;2.20;;;;;;;;;;5016352;28;20172;-71
2023/05/31 00:23:43;;;;;;;2.87;2.37;;;;;;;;;;5015761;28;20196;-71
2023/05/31 00:26:08;;;;;;;3.00;2.00;;;;;;;;;;5010261;28;20211;-71
2023/05/31 00:28:34;;;;;;;2.40;1.87;;;;;;;;;;5004896;28;20225;-71
2023/05/31 00:30:59;;;;;;;3.60;1.70;;;;;;;;;;5007941;28;20176;-71
2023/05/31 00:33:24;;;;;;;3.13;2.13;;;;;;;;;;5010573;28;20225;-71
2023/05/31 00:35:49;;;;;;;3.00;2.03;;;;;;;;;;5007342;28;20174;-71
2023/05/31 00:38:15;;;;;;;2.10;2.00;;;;;;;;;;5009544;28;20180;-71
2023/05/31 00:40:40;;;;;;;2.63;2.07;;;;;;;;;;5015898;28;20173;-71
2023/05/31 00:43:05;;;;;;;3.97;1.90;;;;;;;;;;5016063;28;20187;-71
2023/05/31 00:45:32;;;;;;;3.80;2.20;;;;;;;;;;5007490;28;20194;-71
2023/05/31 00:47:59;;;;;;;2.23;2.00;;;;;;;;;;5009400;28;20295;-71
2023/05/31 00:50:25;;;;;;;2.77;2.13;;;;;;;;;;5013174;28;20181;-71
2023/05/31 00:52:51;;;;;;;2.67;1.87;;;;;;;;;;5007495;28;20321;-71
2023/05/31 00:55:16;;;;;;;4.87;2.00;;;;;;;;;;5012472;28;20215;-71
2023/05/31 00:57:42;;;;;;;5.47;1.83;;;;;;;;;;5009373;28;20232;-72
2023/05/31 01:00:08;;;;;;;4.87;2.30;;;;;;;;;;5009672;28;20183;-71
2023/05/31 01:02:34;;;;;;;3.43;2.20;;;;;;;;;;5006435;28;20200;-71
2023/05/31 01:05:00;;;;;;;4.53;2.30;;;;;;;;;;5005310;28;20231;-71
2023/05/31 01:07:25;;;;;;;3.70;1.93;;;;;;;;;;5009095;28;20207;-71
2023/05/31 01:09:51;;;;;;;4.27;2.10;;;;;;;;;;5008369;28;20177;-71
2023/05/31 01:12:28;;;;;;;3.70;2.20;;;;;;;;;;5009763;28;20304;-71
2023/05/31 01:15:12;;;;;;;3.43;2.10;;;;;;;;;;5006958;28;20214;-71
2023/05/31 01:17:38;;;;;;;2.53;2.00;;;;;;;;;;5023191;28;20187;-71
2023/05/31 01:20:11;;;;;;;3.13;1.83;;;;;;;;;;5013382;28;20179;-71
2023/05/31 01:22:56;;;;;;;3.00;2.50;;;;;;;;;;5014782;28;20198;-71
2023/05/31 01:25:33;;;;;;;4.90;2.03;;;;;;;;;;5008580;28;20186;-71
2023/05/31 01:27:59;;;;;;;4.27;2.03;;;;;;;;;;5006129;28;20183;-71
2023/05/31 01:30:26;;;;;;;3.00;2.00;;;;;;;;;;5009622;28;20176;-71
2023/05/31 01:32:52;;;;;;;3.77;2.27;;;;;;;;;;5007350;28;20188;-71
2023/05/31 01:35:18;;;;;;;2.83;1.90;;;;;;;;;;5007048;28;20215;-71
2023/05/31 01:37:43;;;;;;;7.73;2.13;;;;;;;;;;5007866;28;20192;-71
2023/05/31 01:40:09;;;;;;;3.07;2.10;;;;;;;;;;5012745;28;20175;-71
2023/05/31 01:42:35;;;;;;;2.33;1.97;;;;;;;;;;5009686;28;20187;-71
2023/05/31 01:45:00;;;;;;;4.67;2.13;;;;;;;;;;5011774;28;20182;-71
2023/05/31 01:47:25;;;;;;;3.37;2.10;;;;;;;;;;5013442;28;20176;-71
2023/05/31 01:49:51;;;;;;;4.83;2.60;;;;;;;;;;5021006;28;20183;-71
2023/05/31 01:52:17;;;;;;;6.90;2.67;;;;;;;;;;5013887;28;20179;-71
2023/05/31 01:54:42;;;;;;;2.70;1.57;;;;;;;;;;5019966;28;20210;-71
2023/05/31 01:57:08;;;;;;;3.77;2.13;;;;;;;;;;5038255;28;20226;-71
2023/05/31 01:59:36;;;;;;;3.53;2.13;;;;;;;;;;5053824;28;20184;-71
2023/05/31 02:02:02;;;;;;;2.43;2.20;;;;;;;;;;5051643;28;20174;-71
2023/05/31 02:04:27;;;;;;;6.47;3.17;;;;;;;;;;5034455;28;20212;-71
2023/05/31 02:06:53;;;;;;;3.23;2.17;;;;;;;;;;5050275;28;20197;-71
2023/05/31 02:09:20;;;;;;;2.33;1.80;;;;;;;;;;5043529;28;20228;-71
2023/05/31 02:11:45;;;;;;;4.47;1.80;;;;;;;;;;5050183;28;20181;-71
2023/05/31 02:14:10;;;;;;;3.50;1.97;;;;;;;;;;5039481;28;20208;-71
2023/05/31 02:16:35;;;;;;;2.73;2.07;;;;;;;;;;5034801;28;20184;-71
2023/05/31 02:19:02;;;;;;;4.30;2.10;;;;;;;;;;5052844;28;20181;-71
2023/05/31 02:21:27;;;;;;;4.87;2.20;;;;;;;;;;5053266;28;20182;-71
2023/05/31 02:23:53;;;;;;;4.00;2.00;;;;;;;;;;5034074;28;20260;-71
2023/05/31 02:26:18;;;;;;;5.07;2.30;;;;;;;;;;5043701;28;20182;-71
2023/05/31 02:28:43;;;;;;;3.00;2.13;;;;;;;;;;5051931;28;20182;-71
2023/05/31 02:31:08;;;;;;;3.03;2.13;;;;;;;;;;5050037;28;20182;-71
2023/05/31 02:33:34;;;;;;;3.73;2.20;;;;;;;;;;5051239;28;20184;-71
2023/05/31 02:35:59;;;;;;;2.57;1.90;;;;;;;;;;5047599;28;20184;-71
2023/05/31 02:38:25;;;;;;;3.27;2.40;;;;;;;;;;5050787;28;20182;-71
2023/05/31 02:40:50;;;;;;;2.90;2.13;;;;;;;;;;5033589;28;20173;-71
2023/05/31 02:43:15;;;;;;;3.67;2.10;;;;;;;;;;5034549;28;20188;-71
2023/05/31 02:45:41;;;;;;;4.13;2.07;;;;;;;;;;5032909;28;20181;-71
2023/05/31 02:48:07;;;;;;;2.73;1.83;;;;;;;;;;5049542;28;20189;-71
2023/05/31 02:50:32;;;;;;;6.33;2.30;;;;;;;;;;5030114;28;20188;-71
2023/05/31 02:52:57;;;;;;;3.67;2.10;;;;;;;;;;5034821;28;20181;-71
2023/05/31 02:55:22;;;;;;;3.47;2.60;;;;;;;;;;5038532;28;20196;-71
2023/05/31 02:57:48;;;;;;;5.43;2.10;;;;;;;;;;5011487;28;20303;-71
2023/05/31 03:00:13;;;;;;;3.20;2.20;;;;;;;;;;5009720;28;20186;-71
2023/05/31 03:02:39;;;;;;;3.67;2.10;;;;;;;;;;5014681;28;20208;-71
2023/05/31 03:05:05;;;;;;;2.33;2.10;;;;;;;;;;5012844;28;20186;-71
2023/05/31 03:07:30;;;;;;;5.83;2.20;;;;;;;;;;5015665;28;20182;-71
2023/05/31 03:09:56;;;;;;;4.00;1.97;;;;;;;;;;5009998;28;20251;-71
2023/05/31 03:12:21;;;;;;;5.93;2.10;;;;;;;;;;5011860;28;20324;-71
2023/05/31 03:14:46;;;;;;;40.73;4.60;;;;;;;;;;5010831;28;20238;-71
2023/05/31 03:17:11;;;;;;;6.13;2.17;;;;;;;;;;5004817;28;20176;-71
2023/05/31 03:19:37;;;;;;;5.03;3.20;;;;;;;;;;5008717;28;20185;-71
2023/05/31 03:22:02;;;;;;;10.67;2.23;;;;;;;;;;5010538;28;20184;-71
2023/05/31 03:24:27;;;;;;;5.73;1.97;;;;;;;;;;5006357;28;20186;-71
2023/05/31 03:26:54;;;;;;;2.67;2.10;;;;;;;;;;5010511;28;20200;-71
2023/05/31 03:29:20;;;;;;;2.90;2.40;;;;;;;;;;5009935;28;20261;-71
2023/05/31 03:31:45;;;;;;;3.10;1.80;;;;;;;;;;5009674;28;20273;-71
2023/05/31 03:34:10;;;;;;;5.13;2.20;;;;;;;;;;5009986;28;20289;-71
2023/05/31 03:36:36;;;;;;;2.47;2.20;;;;;;;;;;5012202;28;20177;-71
2023/05/31 03:39:01;;;;;;;3.17;2.30;;;;;;;;;;5009967;28;20190;-71
2023/05/31 03:41:27;;;;;;;2.83;2.33;;;;;;;;;;5016836;28;20170;-71
2023/05/31 03:43:52;;;;;;;3.03;2.63;;;;;;;;;;5007927;28;20169;-71
2023/05/31 03:46:18;;;;;;;3.27;1.90;;;;;;;;;;5015372;28;20214;-71
2023/05/31 03:48:43;;;;;;;3.83;1.87;;;;;;;;;;5010753;28;20191;-71
2023/05/31 03:51:08;;;;;;;4.80;2.23;;;;;;;;;;5010092;28;20226;-71
2023/05/31 03:53:34;;;;;;;7.00;2.50;;;;;;;;;;5009108;28;20180;-71
2023/05/31 03:55:59;;;;;;;2.13;1.97;;;;;;;;;;5012007;28;20291;-71
2023/05/31 03:58:24;;;;;;;2.47;2.13;;;;;;;;;;5033559;28;20173;-71
2023/05/31 04:00:49;;;;;;;3.33;2.00;;;;;;;;;;5051569;28;20275;-71
2023/05/31 04:03:15;;;;;;;47.27;6.97;;;;;;;;;;5047258;28;20253;-71
2023/05/31 04:05:40;;;;;;;4.30;2.23;;;;;;;;;;5045986;28;20243;-71
2023/05/31 04:08:05;;;;;;;5.43;2.53;;;;;;;;;;5031015;28;20236;-71
2023/05/31 04:10:31;;;;;;;3.03;2.23;;;;;;;;;;5033622;28;20203;-71
2023/05/31 04:12:56;;;;;;;3.70;2.40;;;;;;;;;;5051292;28;20176;-71
2023/05/31 04:15:21;;;;;;;3.20;2.27;;;;;;;;;;5049257;28;20249;-71
2023/05/31 04:17:46;;;;;;;2.77;2.23;;;;;;;;;;5049367;28;20275;-71
2023/05/31 04:20:12;;;;;;;3.30;1.90;;;;;;;;;;5046414;28;20171;-71
2023/05/31 04:22:37;;;;;;;2.23;2.03;;;;;;;;;;5046121;28;20186;-72
2023/05/31 04:25:02;;;;;;;2.33;1.83;;;;;;;;;;5028730;28;20278;-71
2023/05/31 04:27:30;;;;;;;4.40;2.13;;;;;;;;;;5037632;28;20183;-72
2023/05/31 04:29:57;;;;;;;3.93;1.90;;;;;;;;;;5031662;28;20180;-73
2023/05/31 04:32:25;;;;;;;3.13;1.97;;;;;;;;;;5048011;28;20187;-73
2023/05/31 04:34:57;;;;;;;85.33;8.67;;;;;;;;;;5047709;28;20203;-73
2023/05/31 04:37:22;;;;;;;2.83;2.20;;;;;;;;;;5045881;28;20263;-73
2023/05/31 04:39:48;;;;;;;2.47;2.17;;;;;;;;;;5042547;28;20268;-73
2023/05/31 04:42:13;;;;;;;7.83;2.53;;;;;;;;;;5031920;28;20177;-73
2023/05/31 04:44:38;;;;;;;3.10;2.30;;;;;;;;;;5047339;28;20187;-72
2023/05/31 04:47:04;;;;;;;6.57;2.60;;;;;;;;;;5047442;28;20250;-71
2023/05/31 04:49:29;;;;;;;1.87;1.60;;;;;;;;;;5049252;28;20188;-71
2023/05/31 04:51:56;;;;;;;5.60;2.10;;;;;;;;;;5045436;28;20177;-71
2023/05/31 04:54:21;;;;;;;4.07;2.17;;;;;;;;;;5048068;28;20215;-71
2023/05/31 04:56:47;;;;;;;4.20;2.00;;;;;;;;;;5024470;28;20225;-71
2023/05/31 04:59:12;;;;;;;2.73;2.43;;;;;;;;;;5010598;28;20236;-72
2023/05/31 05:01:39;;;;;;;4.60;2.10;;;;;;;;;;5007261;28;20175;-71
2023/05/31 05:04:04;;;;;;;4.47;2.17;;;;;;;;;;5003495;28;20216;-71
2023/05/31 05:06:29;;;;;;;2.83;2.23;;;;;;;;;;5007809;28;20253;-71
2023/05/31 05:08:54;;;;;;;2.63;2.33;;;;;;;;;;5009847;28;20174;-72
2023/05/31 05:11:20;;;;;;;3.60;1.90;;;;;;;;;;5008110;28;20181;-70
2023/05/31 05:13:45;;;;;;;2.40;1.80;;;;;;;;;;5007720;28;20188;-71
2023/05/31 05:16:10;;;;;;;2.87;2.00;;;;;;;;;;5007611;28;20183;-71
2023/05/31 05:18:36;;;;;;;4.90;2.30;;;;;;;;;;5008998;28;20174;-72
2023/05/31 05:21:01;;;;;;;4.13;1.97;;;;;;;;;;5009649;28;20182;-71
2023/05/31 05:23:26;;;;;;;4.90;2.73;;;;;;;;;;5010669;28;20186;-70
2023/05/31 05:25:51;;;;;;;4.70;2.30;;;;;;;;;;5012787;28;20221;-71
2023/05/31 05:28:17;;;;;;;3.53;2.43;;;;;;;;;;5023488;28;20222;-71
2023/05/31 05:30:44;;;;;;;3.93;2.27;;;;;;;;;;5011373;28;20190;-71
2023/05/31 05:33:10;;;;;;;3.20;1.90;;;;;;;;;;5012666;28;20246;-71
2023/05/31 05:35:35;;;;;;;6.07;2.20;;;;;;;;;;5010079;28;20207;-70
2023/05/31 05:38:00;;;;;;;5.23;2.07;;;;;;;;;;5011921;28;20257;-70
2023/05/31 05:40:25;;;;;;;8.33;2.97;;;;;;;;;;5013728;28;20174;-70
2023/05/31 05:42:51;;;;;;;2.57;2.00;;;;;;;;;;5011224;28;20195;-70
2023/05/31 05:45:16;;;;;;;5.17;2.97;;;;;;;;;;5011872;28;20186;-71
2023/05/31 05:47:44;;;;;;;3.77;2.60;;;;;;;;;;5012066;28;20195;-72
2023/05/31 05:50:10;;;;;;;4.47;2.70;;;;;;;;;;5011076;28;20183;-71
2023/05/31 05:52:35;;;;;;;3.40;2.30;;;;;;;;;;5014117;28;20191;-72
2023/05/31 05:55:01;;;;;;;4.83;2.20;;;;;;;;;;5008526;28;20307;-72
2023/05/31 05:57:26;;;;;;;3.60;2.30;;;;;;;;;;5043250;28;20220;-71
2023/05/31 05:59:52;;;;;;;14.17;3.03;;;;;;;;;;5033814;28;20197;-71
2023/05/31 06:02:17;;;;;;;2.47;2.20;;;;;;;;;;5051084;28;20193;-70
2023/05/31 06:04:43;;;;;;;3.33;2.23;;;;;;;;;;5051147;28;20175;-71
2023/05/31 06:07:08;;;;;;;2.93;2.30;;;;;;;;;;5053389;28;20224;-70
2023/05/31 06:09:33;;;;;;;3.33;2.27;;;;;;;;;;5051627;28;20236;-72
2023/05/31 06:11:58;;;;;;;3.10;2.17;;;;;;;;;;5052228;28;20232;-71
2023/05/31 06:14:23;;;;;;;4.17;2.13;;;;;;;;;;5028204;28;20220;-71
2023/05/31 06:16:49;;;;;;;4.03;1.90;;;;;;;;;;5034133;28;20205;-71
2023/05/31 06:19:14;;;;;;;4.43;2.43;;;;;;;;;;5050447;28;20182;-71
2023/05/31 06:21:39;;;;;;;3.53;2.10;;;;;;;;;;5049551;28;20257;-71
2023/05/31 06:24:05;;;;;;;2.50;2.10;;;;;;;;;;5034370;28;20179;-71
2023/05/31 06:26:30;;;;;;;4.73;2.30;;;;;;;;;;5051500;28;20170;-73
2023/05/31 06:28:59;;;;;;;102.07;10.07;;;;;;;;;;5051198;28;20183;-71
2023/05/31 06:31:25;;;;;;;3.37;2.70;;;;;;;;;;5029197;28;20187;-71
2023/05/31 06:33:50;;;;;;;3.87;2.17;;;;;;;;;;5030462;28;20193;-71
2023/05/31 06:36:15;;;;;;;6.27;2.60;;;;;;;;;;5046134;28;20213;-71
2023/05/31 06:38:40;;;;;;;3.97;2.27;;;;;;;;;;5031924;28;20228;-71
2023/05/31 06:41:05;;;;;;;3.43;2.63;;;;;;;;;;5052625;28;20296;-71
2023/05/31 06:43:31;;;;;;;2.90;2.20;;;;;;;;;;5050742;28;20206;-72
2023/05/31 06:45:56;;;;;;;4.50;2.50;;;;;;;;;;5047945;28;20225;-71
2023/05/31 06:48:21;;;;;;;5.27;2.27;;;;;;;;;;5039245;28;20180;-71
2023/05/31 06:50:46;;;;;;;6.80;2.77;;;;;;;;;;5051339;28;20237;-70
2023/05/31 06:53:12;;;;;;;4.63;2.43;;;;;;;;;;5051042;28;20262;-71
2023/05/31 06:55:38;;;;;;;6.30;2.70;;;;;;;;;;5047757;28;20206;-71
2023/05/31 06:58:03;;;;;;;6.13;2.80;;;;;;;;;;5045575;28;20179;-71
2023/05/31 07:00:28;;;;;;;8.27;3.20;;;;;;;;;;5033299;28;20184;-72
2023/05/31 07:02:54;;;;;;;7.20;3.23;;;;;;;;;;5031485;28;20195;-72
2023/05/31 07:05:19;;;;;;;5.13;2.70;;;;;;;;;;5031036;28;20272;-72
2023/05/31 07:07:44;;;;;;;4.97;2.40;;;;;;;;;;5049512;28;20176;-72
2023/05/31 07:10:10;;;;;;;6.70;3.30;;;;;;;;;;5028607;28;20251;-72
2023/05/31 07:12:35;;;;;;;6.67;3.43;;;;;;;;;;5031746;28;20257;-71
2023/05/31 07:15:00;;;;;;;8.40;2.63;;;;;;;;;;5049910;28;20206;-71
2023/05/31 07:17:26;;;;;;;3.77;2.50;;;;;;;;;;5040053;28;20179;-72
2023/05/31 07:19:51;;;;;;;73.60;8.70;;;;;;;;;;5050894;28;20259;-71
2023/05/31 07:22:17;;;;;;;6.93;2.93;;;;;;;;;;5050540;28;20267;-71
2023/05/31 07:24:42;;;;;;;2.87;2.63;;;;;;;;;;5034004;28;20184;-72
2023/05/31 07:27:08;;;;;;;4.27;2.27;;;;;;;;;;5033004;28;20177;-71
2023/05/31 07:29:33;;;;;;;3.10;2.60;;;;;;;;;;5031786;28;20279;-71
2023/05/31 07:31:59;;;;;;;6.90;2.70;;;;;;;;;;5051269;28;20177;-71
2023/05/31 07:34:24;;;;;;;3.33;2.90;;;;;;;;;;5050516;28;20209;-72
2023/05/31 07:36:49;;;;;;;5.90;2.67;;;;;;;;;;5029192;28;20178;-71
2023/05/31 07:39:15;;;;;;;16.50;3.83;;;;;;;;;;5048247;28;20189;-71
2023/05/31 07:41:41;;;;;;;4.07;2.87;;;;;;;;;;5049479;28;20251;-72
2023/05/31 07:44:06;;;;;;;6.60;2.40;;;;;;;;;;5049549;28;20253;-72
2023/05/31 07:46:31;;;;;;;10.63;5.87;;;;;;;;;;5029948;28;20192;-71
2023/05/31 07:48:56;;;;;;;8.93;3.40;;;;;;;;;;5049331;28;20217;-71
2023/05/31 07:51:22;;;;;;;25.37;4.00;;;;;;;;;;5050169;28;20189;-72
2023/05/31 07:53:47;;;;;;;4.63;3.00;;;;;;;;;;5043119;28;20193;-72
2023/05/31 07:56:12;;;;;;;9.10;4.30;;;;;;;;;;5022996;28;20235;-70
2023/05/31 07:58:38;;;;;;;11.53;2.90;;;;;;;;;;5009362;28;20175;-71
2023/05/31 08:01:03;;;;;;;21.97;8.03;;;;;;;;;;5008854;28;20242;-71
2023/05/31 08:03:28;;;;;;;7.43;2.77;;;;;;;;;;5009032;28;20212;-71
2023/05/31 08:05:53;;;;;;;8.80;2.43;;;;;;;;;;5011437;28;20210;-71
2023/05/31 08:08:19;;;;;;;31.20;6.33;;;;;;;;;;5007455;28;20175;-71
2023/05/31 08:10:44;;;;;;;6.90;3.20;;;;;;;;;;5001813;28;20218;-71
2023/05/31 08:13:09;;;;;;;6.23;2.90;;;;;;;;;;5005365;28;20181;-72
2023/05/31 08:15:35;;;;;;;4.53;3.07;;;;;;;;;;5007185;28;20210;-71
2023/05/31 08:18:00;;;;;;;6.87;2.80;;;;;;;;;;5011291;28;20201;-72
2023/05/31 08:20:26;;;;;;;4.83;2.97;;;;;;;;;;5007196;28;20261;-72
2023/05/31 08:22:52;;;;;;;4.07;2.83;;;;;;;;;;5009345;28;20168;-71
2023/05/31 08:25:18;;;;;;;4.50;2.90;;;;;;;;;;5009746;28;20178;-71
2023/05/31 08:27:44;;;;;;;3.90;2.30;;;;;;;;;;5006513;28;20182;-71
2023/05/31 08:30:10;;;;;;;7.00;3.50;;;;;;;;;;5010518;28;20181;-72
2023/05/31 08:32:36;;;;;;;7.07;3.13;;;;;;;;;;5008916;28;20193;-71
2023/05/31 08:35:02;;;;;;;23.50;3.80;;;;;;;;;;5002209;28;20228;-71
2023/05/31 08:37:27;;;;;;;6.57;2.30;;;;;;;;;;5004073;28;20170;-72
2023/05/31 08:39:52;;;;;;;2.97;2.40;;;;;;;;;;5009105;28;20210;-71
2023/05/31 08:42:19;;;;;;;5.17;2.83;;;;;;;;;;5005199;28;20177;-71
2023/05/31 08:44:45;;;;;;;23.00;8.63;;;;;;;;;;5002674;28;20238;-72
2023/05/31 08:47:16;;;;;;;7.53;3.40;;;;;;;;;;5008588;28;20224;-72
2023/05/31 08:49:42;;;;;;;9.87;3.30;;;;;;;;;;5007139;28;20182;-72
2023/05/31 08:52:07;;;;;;;6.57;2.97;;;;;;;;;;5008998;28;20184;-71
2023/05/31 08:54:33;;;;;;;8.00;3.23;;;;;;;;;;5006369;28;20198;-70
2023/05/31 08:56:59;;;;;;;5.47;3.17;;;;;;;;;;5006498;28;20234;-71
2023/05/31 08:59:25;;;;;;;5.47;2.93;;;;;;;;;;5006715;28;20184;-70
2023/05/31 09:01:52;;;;;;;10.67;3.77;;;;;;;;;;5007271;28;20214;-70
2023/05/31 09:04:18;;;;;;;4.63;2.73;;;;;;;;;;5006721;28;20203;-71
2023/05/31 09:06:43;;;;;;;5.07;2.60;;;;;;;;;;5009790;28;20184;-71
2023/05/31 09:09:08;;;;;;;4.90;3.47;;;;;;;;;;5009116;28;20197;-71
2023/05/31 09:11:37;;;;;;;6.47;3.47;;;;;;;;;;5007375;28;20191;-71
2023/05/31 09:14:02;;;;;;;54.30;9.33;;;;;;;;;;5008062;28;20210;-71
2023/05/31 09:16:28;;;;;;;6.50;3.00;;;;;;;;;;5005204;28;20181;-71
2023/05/31 09:19:04;;;;;;;6.03;3.03;;;;;;;;;;5008708;28;20252;-71
2023/05/31 09:21:37;;;;;;;57.77;8.93;;;;;;;;;;5007775;28;20208;-71
2023/05/31 09:24:02;;;;;;;4.00;3.30;;;;;;;;;;5009022;28;20189;-71
2023/05/31 09:26:28;;;;;;;3.40;2.27;;;;;;;;;;5008738;28;20190;-71
2023/05/31 09:28:54;;;;;;;5.30;2.60;;;;;;;;;;5003003;28;20211;-71
2023/05/31 09:31:20;;;;;;;17.77;3.43;;;;;;;;;;5008714;28;20225;-71
2023/05/31 09:33:47;;;;;;;11.13;3.73;;;;;;;;;;5003262;28;20227;-72
2023/05/31 09:36:13;;;;;;;3.87;2.40;;;;;;;;;;5009233;28;20292;-72
2023/05/31 09:38:39;;;;;;;11.67;3.77;;;;;;;;;;5009780;28;20195;-72
2023/05/31 09:41:15;;;;;;;6.87;2.57;;;;;;;;;;5008619;28;20193;-71
2023/05/31 09:43:40;;;;;;;9.17;4.07;;;;;;;;;;5007180;28;20177;-72
2023/05/31 09:46:10;;;;;;;4.13;3.03;;;;;;;;;;5007229;28;20212;-71
2023/05/31 09:48:35;;;;;;;8.97;3.50;;;;;;;;;;5004332;28;20191;-71
2023/05/31 09:51:01;;;;;;;9.27;3.13;;;;;;;;;;4997891;28;20198;-71
2023/05/31 09:53:26;;;;;;;5.20;2.43;;;;;;;;;;5007103;28;20178;-71
2023/05/31 09:55:51;;;;;;;8.82;3.03;;;;;;;;;;5013287;28;20231;-71
2023/05/31 09:58:30;;;;;;;4.20;2.50;;;;;;;;;;5048327;28;20253;-71
2023/05/31 10:00:58;;;;;;;6.63;3.30;;;;;;;;;;5045962;28;20185;-71
2023/05/31 10:03:23;;;;;;;3.57;2.93;;;;;;;;;;5042315;28;20215;-71
2023/05/31 10:05:49;;;;;;;7.83;3.10;;;;;;;;;;5029557;28;20256;-71
2023/05/31 10:08:14;;;;;;;4.97;2.60;;;;;;;;;;5050408;28;20174;-71
2023/05/31 10:10:39;;;;;;;6.23;2.90;;;;;;;;;;5045478;28;20349;-71
2023/05/31 10:13:05;;;;;;;4.27;2.50;;;;;;;;;;5032537;28;20277;-71
2023/05/31 10:15:31;;;;;;;38.28;5.32;;;;;;;;;;5049482;28;20262;-71
2023/05/31 10:18:00;;;;;;;7.68;2.80;;;;;;;;;;5052753;28;20589;-70
2023/05/31 10:20:31;;;;;;;2.40;2.20;;;;;;;;;;5033156;28;20178;-71
2023/05/31 10:22:58;;;;;;;5.45;2.58;;;;;;;;;;5049220;28;20183;-72
2023/05/31 10:25:36;;;;;;;5.60;3.35;;;;;;;;;;5049661;28;20178;-72
2023/05/31 10:28:05;;;;;;;6.93;3.30;;;;;;;;;;5051612;28;20189;-73
2023/05/31 10:30:33;;;;;;;3.08;2.03;;;;;;;;;;5051098;28;20186;-73
2023/05/31 10:33:10;;;;;;;5.50;2.30;;;;;;;;;;5046166;28;20182;-72
2023/05/31 10:35:36;;;;;;;5.80;2.80;;;;;;;;;;5030612;28;20239;-73
2023/05/31 10:38:01;;;;;;;4.97;2.33;;;;;;;;;;5050786;28;20205;-72
2023/05/31 10:40:45;;;;;;;9.75;3.10;;;;;;;;;;5032718;28;20178;-73
2023/05/31 10:43:16;;;;;;;3.63;2.58;;;;;;;;;;5042215;28;20198;-72
2023/05/31 10:45:43;;;;;;;4.03;2.75;;;;;;;;;;5046626;28;20182;-73
2023/05/31 10:48:09;;;;;;;5.78;2.45;;;;;;;;;;5030760;28;20178;-73
2023/05/31 10:50:34;;;;;;;5.82;2.53;;;;;;;;;;5033176;28;20193;-74
2023/05/31 10:53:12;;;;;;;4.03;2.70;;;;;;;;;;5051563;28;20178;-72
2023/05/31 10:55:40;;;;;;;3.30;2.95;;;;;;;;;;5034288;28;20209;-72
2023/05/31 10:58:05;;;;;;;3.13;2.25;;;;;;;;;;5026957;28;20285;-72
2023/05/31 11:00:31;;;;;;;4.82;3.13;;;;;;;;;;5047033;28;20269;-73
2023/05/31 11:02:58;;;;;;;5.00;3.08;;;;;;;;;;5025908;28;20194;-72
2023/05/31 11:05:27;;;;;;;4.90;2.60;;;;;;;;;;5029925;28;20213;-73
2023/05/31 11:07:53;;;;;;;3.55;2.60;;;;;;;;;;5033787;28;20185;-73
2023/05/31 11:10:26;;;;;;;5.68;2.58;;;;;;;;;;5047944;28;20186;-72
2023/05/31 11:12:51;;;;;;;4.43;3.30;;;;;;;;;;5044855;28;20200;-73
2023/05/31 11:15:16;;;;;;;3.20;2.70;;;;;;;;;;5035866;28;20206;-73
2023/05/31 11:18:00;;;;;;;3.92;2.35;;;;;;;;;;5033200;28;20178;-76
2023/05/31 11:20:26;;;;;;;4.40;2.45;;;;;;;;;;5049233;28;20198;-76
2023/05/31 11:23:10;;;;;;;4.82;2.72;;;;;;;;;;5052094;28;20170;-73
2023/05/31 11:25:35;;;;;;;5.30;2.70;;;;;;;;;;5046110;28;20205;-73
2023/05/31 11:28:06;;;;;;;6.90;2.60;;;;;;;;;;5050325;28;20187;-73
2023/05/31 11:30:34;;;;;;;4.40;2.75;;;;;;;;;;5027608;28;20232;-73
2023/05/31 11:33:00;;;;;;;4.00;2.40;;;;;;;;;;5025744;28;20206;-73
2023/05/31 11:35:25;;;;;;;4.43;2.45;;;;;;;;;;5046883;28;20217;-73
2023/05/31 11:37:58;;;;;;;3.83;2.53;;;;;;;;;;5034876;28;20185;-73
2023/05/31 11:40:23;;;;;;;4.75;2.72;;;;;;;;;;5043318;28;20178;-73
2023/05/31 11:42:49;;;;;;;4.10;2.63;;;;;;;;;;5036758;28;20178;-73
2023/05/31 11:45:22;;;;;;;5.47;2.58;;;;;;;;;;5041630;28;20178;-73
2023/05/31 11:47:53;;;;;;;3.45;2.80;;;;;;;;;;5035267;28;20208;-73
2023/05/31 11:50:18;;;;;;;5.28;2.70;;;;;;;;;;5029428;28;20186;-73
2023/05/31 11:52:44;;;;;;;4.45;2.65;;;;;;;;;;5029619;28;20213;-73
2023/05/31 11:55:10;;;;;;;4.25;2.50;;;;;;;;;;5050368;28;20256;-73
2023/05/31 11:57:41;;;;;;;3.80;2.47;;;;;;;;;;5047104;28;20262;-73
2023/05/31 12:00:11;;;;;;;3.83;2.35;;;;;;;;;;5048239;28;20170;-73
2023/05/31 12:02:40;;;;;;;6.07;2.78;;;;;;;;;;5031080;28;20265;-73
2023/05/31 12:05:06;;;;;;;3.88;2.30;;;;;;;;;;5043729;28;20182;-73
2023/05/31 12:07:31;;;;;;;4.63;2.42;;;;;;;;;;5034971;28;20277;-73
2023/05/31 12:09:57;;;;;;;5.78;2.58;;;;;;;;;;5029729;28;20264;-73
2023/05/31 12:12:22;;;;;;;5.03;3.28;;;;;;;;;;5049382;28;20185;-73
2023/05/31 12:14:52;;;;;;;11.52;3.35;;;;;;;;;;5047800;28;20282;-73
2023/05/31 12:17:17;;;;;;;6.10;3.10;;;;;;;;;;5031388;28;20170;-73
2023/05/31 12:19:43;;;;;;;9.65;3.83;;;;;;;;;;5029788;28;20269;-73
2023/05/31 12:22:08;;;;;;;8.00;2.90;;;;;;;;;;5048481;28;20239;-73
2023/05/31 12:24:36;;;;;;;4.35;2.78;;;;;;;;;;5048197;28;20246;-73
2023/05/31 12:27:02;;;;;;;6.00;3.38;;;;;;;;;;5030207;28;20193;-73
2023/05/31 12:29:28;;;;;;;3.63;2.80;;;;;;;;;;5047451;28;20182;-73
2023/05/31 12:32:04;;;;;;;3.05;2.10;;;;;;;;;;5036860;28;20183;-73
2023/05/31 12:34:32;;;;;;;6.70;3.00;;;;;;;;;;5044126;28;20206;-73
2023/05/31 12:36:58;;;;;;;3.50;2.13;;;;;;;;;;5046524;28;20245;-73
2023/05/31 12:39:27;;;;;;;4.10;2.50;;;;;;;;;;5030306;28;20184;-73
2023/05/31 12:41:52;;;;;;;3.80;1.90;;;;;;;;;;5047851;28;20185;-73
2023/05/31 12:44:21;;;;;;;4.15;2.70;;;;;;;;;;5035076;28;20182;-73
2023/05/31 12:46:47;;;;;;;4.95;2.40;;;;;;;;;;5047960;28;20186;-73
2023/05/31 12:49:14;;;;;;;6.95;2.80;;;;;;;;;;5050870;28;20182;-73
2023/05/31 12:51:39;;;;;;;3.50;2.20;;;;;;;;;;5049321;28;20178;-73
2023/05/31 12:54:09;;;;;;;7.88;2.53;;;;;;;;;;5047318;28;20178;-73
2023/05/31 12:56:34;;;;;;;7.43;2.70;;;;;;;;;;5017098;28;20293;-71
2023/05/31 12:59:00;;;;;;;2.47;2.28;;;;;;;;;;5008732;28;20187;-73
2023/05/31 13:01:27;;;;;;;3.13;2.83;;;;;;;;;;5007857;28;20207;-73
2023/05/31 13:03:52;;;;;;;6.80;2.58;;;;;;;;;;5003902;28;20303;-73
2023/05/31 13:06:18;;;;;;;14.77;3.00;;;;;;;;;;5010659;28;20239;-73
2023/05/31 13:08:44;;;;;;;3.15;2.00;;;;;;;;;;5011192;28;20262;-73
2023/05/31 13:11:09;;;;;;;7.85;2.38;;;;;;;;;;5008399;28;20172;-74
2023/05/31 13:13:34;;;;;;;3.08;2.55;;;;;;;;;;5006950;28;20271;-73
2023/05/31 13:16:00;;;;;;;3.95;2.33;;;;;;;;;;5007954;28;20243;-73
2023/05/31 13:18:25;;;;;;;2.78;2.40;;;;;;;;;;5006166;28;20243;-73
2023/05/31 13:20:50;;;;;;;5.75;2.63;;;;;;;;;;5009785;28;20266;-73
2023/05/31 13:23:15;;;;;;;4.18;2.55;;;;;;;;;;5010519;28;20176;-73
2023/05/31 13:25:41;;;;;;;3.38;2.42;;;;;;;;;;5006786;28;20179;-73
2023/05/31 13:28:06;;;;;;;4.85;2.85;;;;;;;;;;5008564;28;20175;-73
2023/05/31 13:30:32;;;;;;;6.32;2.83;;;;;;;;;;5008805;28;20183;-73
2023/05/31 13:32:57;;;;;;;5.95;2.58;;;;;;;;;;5019498;28;20195;-73
2023/05/31 13:35:22;;;;;;;4.13;2.42;;;;;;;;;;5009428;28;20207;-73
2023/05/31 13:37:48;;;;;;;6.95;2.42;;;;;;;;;;5007918;28;20180;-73
2023/05/31 13:40:13;;;;;;;4.75;2.45;;;;;;;;;;5009133;28;20179;-73
2023/05/31 13:42:38;;;;;;;4.10;2.42;;;;;;;;;;5006983;28;20231;-73
2023/05/31 13:45:03;;;;;;;9.20;2.22;;;;;;;;;;5012007;28;20183;-73
2023/05/31 13:47:30;;;;;;;4.68;2.70;;;;;;;;;;5011747;28;20175;-73
2023/05/31 13:49:55;;;;;;;5.25;2.45;;;;;;;;;;5011414;28;20176;-73
2023/05/31 13:52:20;;;;;;;4.57;2.20;;;;;;;;;;5013774;28;20238;-73
2023/05/31 13:54:45;;;;;;;3.83;2.40;;;;;;;;;;5014104;28;20234;-73
2023/05/31 13:57:10;;;;;;;3.25;2.08;;;;;;;;;;5011303;28;20227;-73
2023/05/31 13:59:36;;;;;;;3.75;2.10;;;;;;;;;;5014817;28;20259;-73
2023/05/31 14:02:01;;;;;;;4.40;2.53;;;;;;;;;;5010570;28;20278;-73
2023/05/31 14:04:26;;;;;;;15.77;2.88;;;;;;;;;;5010905;28;20175;-73
2023/05/31 14:06:52;;;;;;;6.20;2.47;;;;;;;;;;5008469;28;20240;-73
2023/05/31 14:09:18;;;;;;;3.63;2.55;;;;;;;;;;5012161;28;20214;-73
2023/05/31 14:11:44;;;;;;;4.35;2.33;;;;;;;;;;5011474;28;20230;-73
2023/05/31 14:14:09;;;;;;;4.40;2.28;;;;;;;;;;5010981;28;20187;-73
2023/05/31 14:16:34;;;;;;;4.72;2.85;;;;;;;;;;5010727;28;20175;-73
2023/05/31 14:19:00;;;;;;;2.42;2.17;;;;;;;;;;5007945;28;20266;-73
2023/05/31 14:21:25;;;;;;;2.47;2.15;;;;;;;;;;5008879;28;20531;-73
2023/05/31 14:23:51;;;;;;;5.32;2.42;;;;;;;;;;5008373;28;20192;-73
2023/05/31 14:26:16;;;;;;;3.67;2.17;;;;;;;;;;5012944;28;20179;-73
2023/05/31 14:28:41;;;;;;;3.13;2.03;;;;;;;;;;5010777;28;20198;-73
2023/05/31 14:31:06;;;;;;;3.38;2.30;;;;;;;;;;5010009;28;20194;-73
2023/05/31 14:33:31;;;;;;;3.30;2.03;;;;;;;;;;5011588;28;20206;-73
2023/05/31 14:35:57;;;;;;;5.93;2.60;;;;;;;;;;5009453;28;20233;-73
2023/05/31 14:38:22;;;;;;;3.40;2.17;;;;;;;;;;5005951;28;20179;-73